sensor_id;sensor_type;location;lat;lon;timestamp;P1;durP1;ratioP1;P2;durP2;ratioP2
36405;SDS011;22438;42.670;23.288;2023-01-29T00:02:55;18.63;;;8.95;;
36405;SDS011;22438;42.670;23.288;2023-01-29T00:06:16;17.95;;;8.85;;
36405;SDS011;22438;42.670;23.288;2023-01-29T00:09:36;16.80;;;8.25;;
36405;SDS011;22438;42.670;23.288;2023-01-29T00:12:57;19.45;;;9.00;;
36405;SDS011;22438;42.670;23.288;2023-01-29T00:16:18;15.68;;;7.25;;
36405;SDS011;22438;42.670;23.288;2023-01-29T00:19:39;20.95;;;8.35;;
36405;SDS011;22438;42.670;23.288;2023-01-29T00:22:59;17.67;;;7.53;;
36405;SDS011;22438;42.670;23.288;2023-01-29T00:26:20;21.85;;;8.63;;
36405;SDS011;22438;42.670;23.288;2023-01-29T00:29:41;16.35;;;7.95;;
36405;SDS011;22438;42.670;23.288;2023-01-29T00:33:02;19.02;;;8.80;;
36405;SDS011;22438;42.670;23.288;2023-01-29T00:36:23;14.73;;;7.25;;
36405;SDS011;22438;42.670;23.288;2023-01-29T00:39:45;19.23;;;8.05;;
36405;SDS011;22438;42.670;23.288;2023-01-29T00:43:06;15.70;;;8.05;;
36405;SDS011;22438;42.670;23.288;2023-01-29T00:46:45;18.93;;;8.23;;
36405;SDS011;22438;42.670;23.288;2023-01-29T00:50:07;16.85;;;7.88;;
36405;SDS011;22438;42.670;23.288;2023-01-29T00:53:29;17.40;;;7.60;;
36405;SDS011;22438;42.670;23.288;2023-01-29T00:56:50;17.23;;;8.07;;
36405;SDS011;22438;42.670;23.288;2023-01-29T01:00:12;17.05;;;7.65;;
36405;SDS011;22438;42.670;23.288;2023-01-29T01:03:35;17.98;;;8.85;;
36405;SDS011;22438;42.670;23.288;2023-01-29T01:07:01;20.05;;;8.65;;
36405;SDS011;22438;42.670;23.288;2023-01-29T01:10:27;19.73;;;8.25;;
36405;SDS011;22438;42.670;23.288;2023-01-29T01:13:49;17.30;;;8.40;;
36405;SDS011;22438;42.670;23.288;2023-01-29T01:17:10;19.83;;;8.43;;
36405;SDS011;22438;42.670;23.288;2023-01-29T01:20:32;15.77;;;6.75;;
36405;SDS011;22438;42.670;23.288;2023-01-29T01:23:54;13.60;;;6.47;;
36405;SDS011;22438;42.670;23.288;2023-01-29T01:27:14;15.73;;;7.75;;
36405;SDS011;22438;42.670;23.288;2023-01-29T01:30:35;15.95;;;7.45;;
36405;SDS011;22438;42.670;23.288;2023-01-29T01:33:56;16.98;;;7.68;;
36405;SDS011;22438;42.670;23.288;2023-01-29T01:37:17;19.70;;;9.00;;
36405;SDS011;22438;42.670;23.288;2023-01-29T01:40:42;17.92;;;7.90;;
36405;SDS011;22438;42.670;23.288;2023-01-29T01:44:04;15.60;;;7.63;;
36405;SDS011;22438;42.670;23.288;2023-01-29T01:47:27;17.73;;;8.13;;
36405;SDS011;22438;42.670;23.288;2023-01-29T01:51:01;18.35;;;8.65;;
36405;SDS011;22438;42.670;23.288;2023-01-29T01:54:25;16.60;;;7.78;;
36405;SDS011;22438;42.670;23.288;2023-01-29T01:57:49;18.08;;;7.78;;
36405;SDS011;22438;42.670;23.288;2023-01-29T02:01:12;17.00;;;7.97;;
36405;SDS011;22438;42.670;23.288;2023-01-29T02:04:33;16.63;;;8.15;;
36405;SDS011;22438;42.670;23.288;2023-01-29T02:08:12;19.50;;;8.93;;
36405;SDS011;22438;42.670;23.288;2023-01-29T02:11:53;16.52;;;8.40;;
36405;SDS011;22438;42.670;23.288;2023-01-29T02:15:13;16.75;;;8.63;;
36405;SDS011;22438;42.670;23.288;2023-01-29T02:18:34;19.52;;;8.77;;
36405;SDS011;22438;42.670;23.288;2023-01-29T02:30:14;17.50;;;8.10;;
36405;SDS011;22438;42.670;23.288;2023-01-29T02:37:05;17.58;;;9.00;;
36405;SDS011;22438;42.670;23.288;2023-01-29T02:40:30;15.45;;;8.55;;
36405;SDS011;22438;42.670;23.288;2023-01-29T02:47:56;15.52;;;8.27;;
36405;SDS011;22438;42.670;23.288;2023-01-29T02:51:23;18.70;;;8.18;;
36405;SDS011;22438;42.670;23.288;2023-01-29T02:58:29;18.27;;;8.88;;
36405;SDS011;22438;42.670;23.288;2023-01-29T03:01:55;18.83;;;9.65;;
36405;SDS011;22438;42.670;23.288;2023-01-29T03:05:20;18.20;;;7.78;;
36405;SDS011;22438;42.670;23.288;2023-01-29T03:08:57;16.40;;;7.63;;
36405;SDS011;22438;42.670;23.288;2023-01-29T03:12:24;17.03;;;8.30;;
36405;SDS011;22438;42.670;23.288;2023-01-29T03:15:55;14.27;;;6.85;;
36405;SDS011;22438;42.670;23.288;2023-01-29T03:19:37;15.05;;;7.38;;
36405;SDS011;22438;42.670;23.288;2023-01-29T03:23:02;13.73;;;6.45;;
36405;SDS011;22438;42.670;23.288;2023-01-29T03:26:26;15.88;;;7.65;;
36405;SDS011;22438;42.670;23.288;2023-01-29T03:30:05;16.80;;;7.85;;
36405;SDS011;22438;42.670;23.288;2023-01-29T03:37:36;15.65;;;7.95;;
36405;SDS011;22438;42.670;23.288;2023-01-29T03:41:04;12.38;;;5.88;;
36405;SDS011;22438;42.670;23.288;2023-01-29T03:44:34;11.52;;;5.78;;
36405;SDS011;22438;42.670;23.288;2023-01-29T04:02:55;11.07;;;6.05;;
36405;SDS011;22438;42.670;23.288;2023-01-29T04:06:28;11.20;;;5.28;;
36405;SDS011;22438;42.670;23.288;2023-01-29T04:10:02;12.25;;;5.88;;
36405;SDS011;22438;42.670;23.288;2023-01-29T04:13:27;11.07;;;5.45;;
36405;SDS011;22438;42.670;23.288;2023-01-29T04:16:51;10.98;;;5.07;;
36405;SDS011;22438;42.670;23.288;2023-01-29T04:20:13;11.13;;;5.95;;
36405;SDS011;22438;42.670;23.288;2023-01-29T04:23:34;11.82;;;5.97;;
36405;SDS011;22438;42.670;23.288;2023-01-29T04:30:32;11.43;;;5.50;;
36405;SDS011;22438;42.670;23.288;2023-01-29T04:34:21;11.85;;;5.43;;
36405;SDS011;22438;42.670;23.288;2023-01-29T04:45:02;12.65;;;6.00;;
36405;SDS011;22438;42.670;23.288;2023-01-29T04:59:50;12.57;;;5.38;;
36405;SDS011;22438;42.670;23.288;2023-01-29T05:03:15;13.88;;;6.80;;
36405;SDS011;22438;42.670;23.288;2023-01-29T05:06:36;11.07;;;5.80;;
36405;SDS011;22438;42.670;23.288;2023-01-29T05:09:57;12.32;;;5.60;;
36405;SDS011;22438;42.670;23.288;2023-01-29T05:13:19;12.77;;;5.93;;
36405;SDS011;22438;42.670;23.288;2023-01-29T05:16:45;12.10;;;5.70;;
36405;SDS011;22438;42.670;23.288;2023-01-29T05:20:07;12.90;;;5.28;;
36405;SDS011;22438;42.670;23.288;2023-01-29T05:23:30;11.38;;;5.07;;
36405;SDS011;22438;42.670;23.288;2023-01-29T05:26:52;11.73;;;5.20;;
36405;SDS011;22438;42.670;23.288;2023-01-29T05:30:32;12.23;;;6.07;;
36405;SDS011;22438;42.670;23.288;2023-01-29T05:33:54;13.82;;;5.22;;
36405;SDS011;22438;42.670;23.288;2023-01-29T05:37:15;11.85;;;5.68;;
36405;SDS011;22438;42.670;23.288;2023-01-29T05:40:36;13.00;;;6.55;;
36405;SDS011;22438;42.670;23.288;2023-01-29T05:43:57;16.27;;;6.78;;
36405;SDS011;22438;42.670;23.288;2023-01-29T05:47:20;12.13;;;5.57;;
36405;SDS011;22438;42.670;23.288;2023-01-29T05:50:41;11.93;;;5.05;;
36405;SDS011;22438;42.670;23.288;2023-01-29T05:54:02;9.50;;;5.03;;
36405;SDS011;22438;42.670;23.288;2023-01-29T05:57:23;11.43;;;4.88;;
36405;SDS011;22438;42.670;23.288;2023-01-29T06:00:43;12.57;;;6.30;;
36405;SDS011;22438;42.670;23.288;2023-01-29T06:04:04;12.40;;;5.72;;
36405;SDS011;22438;42.670;23.288;2023-01-29T06:07:25;15.60;;;7.07;;
36405;SDS011;22438;42.670;23.288;2023-01-29T06:10:46;12.60;;;5.97;;
36405;SDS011;22438;42.670;23.288;2023-01-29T06:14:06;11.73;;;5.97;;
36405;SDS011;22438;42.670;23.288;2023-01-29T06:17:27;13.80;;;5.80;;
36405;SDS011;22438;42.670;23.288;2023-01-29T06:20:48;11.57;;;5.68;;
36405;SDS011;22438;42.670;23.288;2023-01-29T06:24:08;11.57;;;6.63;;
36405;SDS011;22438;42.670;23.288;2023-01-29T06:27:29;13.70;;;6.40;;
36405;SDS011;22438;42.670;23.288;2023-01-29T06:30:50;19.55;;;9.48;;
36405;SDS011;22438;42.670;23.288;2023-01-29T06:34:10;14.00;;;7.35;;
36405;SDS011;22438;42.670;23.288;2023-01-29T06:37:31;16.67;;;7.05;;
36405;SDS011;22438;42.670;23.288;2023-01-29T06:40:52;19.88;;;9.82;;
36405;SDS011;22438;42.670;23.288;2023-01-29T06:44:13;15.65;;;7.35;;
36405;SDS011;22438;42.670;23.288;2023-01-29T06:47:34;20.55;;;9.32;;
36405;SDS011;22438;42.670;23.288;2023-01-29T06:50:55;15.88;;;8.32;;
36405;SDS011;22438;42.670;23.288;2023-01-29T06:54:15;15.82;;;8.18;;
36405;SDS011;22438;42.670;23.288;2023-01-29T06:57:36;15.50;;;7.13;;
36405;SDS011;22438;42.670;23.288;2023-01-29T07:01:07;14.32;;;7.97;;
36405;SDS011;22438;42.670;23.288;2023-01-29T07:04:28;17.98;;;9.68;;
36405;SDS011;22438;42.670;23.288;2023-01-29T07:07:49;16.95;;;8.02;;
36405;SDS011;22438;42.670;23.288;2023-01-29T07:11:09;17.77;;;9.77;;
36405;SDS011;22438;42.670;23.288;2023-01-29T07:14:30;18.52;;;8.98;;
36405;SDS011;22438;42.670;23.288;2023-01-29T07:18:09;18.75;;;9.40;;
36405;SDS011;22438;42.670;23.288;2023-01-29T07:21:33;16.00;;;9.00;;
36405;SDS011;22438;42.670;23.288;2023-01-29T07:24:54;18.90;;;8.35;;
36405;SDS011;22438;42.670;23.288;2023-01-29T07:28:15;15.85;;;7.45;;
36405;SDS011;22438;42.670;23.288;2023-01-29T07:31:36;17.17;;;8.27;;
36405;SDS011;22438;42.670;23.288;2023-01-29T07:34:57;17.75;;;8.63;;
36405;SDS011;22438;42.670;23.288;2023-01-29T07:38:18;16.90;;;9.93;;
36405;SDS011;22438;42.670;23.288;2023-01-29T07:41:39;16.38;;;8.52;;
36405;SDS011;22438;42.670;23.288;2023-01-29T07:44:59;17.38;;;8.88;;
36405;SDS011;22438;42.670;23.288;2023-01-29T07:48:20;18.90;;;9.10;;
36405;SDS011;22438;42.670;23.288;2023-01-29T07:51:41;17.10;;;8.70;;
36405;SDS011;22438;42.670;23.288;2023-01-29T07:55:01;21.05;;;10.20;;
36405;SDS011;22438;42.670;23.288;2023-01-29T07:58:22;21.08;;;10.75;;
36405;SDS011;22438;42.670;23.288;2023-01-29T08:01:43;16.27;;;8.07;;
36405;SDS011;22438;42.670;23.288;2023-01-29T08:05:04;20.05;;;9.75;;
36405;SDS011;22438;42.670;23.288;2023-01-29T08:08:25;17.50;;;9.32;;
36405;SDS011;22438;42.670;23.288;2023-01-29T08:11:45;18.30;;;9.30;;
36405;SDS011;22438;42.670;23.288;2023-01-29T08:15:06;20.50;;;10.55;;
36405;SDS011;22438;42.670;23.288;2023-01-29T08:18:27;21.23;;;10.80;;
36405;SDS011;22438;42.670;23.288;2023-01-29T08:21:50;21.38;;;10.02;;
36405;SDS011;22438;42.670;23.288;2023-01-29T08:25:11;21.48;;;10.40;;
36405;SDS011;22438;42.670;23.288;2023-01-29T08:28:32;20.10;;;11.32;;
36405;SDS011;22438;42.670;23.288;2023-01-29T08:31:54;18.65;;;8.98;;
36405;SDS011;22438;42.670;23.288;2023-01-29T08:35:14;16.98;;;8.70;;
36405;SDS011;22438;42.670;23.288;2023-01-29T08:38:35;18.40;;;9.10;;
36405;SDS011;22438;42.670;23.288;2023-01-29T08:41:56;19.88;;;9.60;;
36405;SDS011;22438;42.670;23.288;2023-01-29T08:45:16;18.55;;;9.05;;
36405;SDS011;22438;42.670;23.288;2023-01-29T08:48:37;20.33;;;9.90;;
36405;SDS011;22438;42.670;23.288;2023-01-29T08:51:58;17.63;;;9.25;;
36405;SDS011;22438;42.670;23.288;2023-01-29T08:55:18;17.45;;;8.55;;
36405;SDS011;22438;42.670;23.288;2023-01-29T08:58:39;19.42;;;9.68;;
36405;SDS011;22438;42.670;23.288;2023-01-29T09:02:00;16.80;;;8.70;;
36405;SDS011;22438;42.670;23.288;2023-01-29T09:05:20;18.05;;;8.73;;
36405;SDS011;22438;42.670;23.288;2023-01-29T09:08:41;19.45;;;8.77;;
36405;SDS011;22438;42.670;23.288;2023-01-29T09:12:02;20.88;;;9.50;;
36405;SDS011;22438;42.670;23.288;2023-01-29T09:15:23;18.35;;;9.43;;
36405;SDS011;22438;42.670;23.288;2023-01-29T09:18:44;26.63;;;12.48;;
36405;SDS011;22438;42.670;23.288;2023-01-29T09:22:05;19.73;;;10.00;;
36405;SDS011;22438;42.670;23.288;2023-01-29T09:25:26;20.45;;;10.82;;
36405;SDS011;22438;42.670;23.288;2023-01-29T09:28:46;18.50;;;9.77;;
36405;SDS011;22438;42.670;23.288;2023-01-29T09:32:07;18.52;;;9.23;;
36405;SDS011;22438;42.670;23.288;2023-01-29T09:35:28;21.02;;;10.40;;
36405;SDS011;22438;42.670;23.288;2023-01-29T09:38:49;22.08;;;10.32;;
36405;SDS011;22438;42.670;23.288;2023-01-29T09:42:15;23.58;;;11.38;;
36405;SDS011;22438;42.670;23.288;2023-01-29T09:45:57;21.05;;;10.30;;
36405;SDS011;22438;42.670;23.288;2023-01-29T09:56:18;28.23;;;15.05;;
36405;SDS011;22438;42.670;23.288;2023-01-29T09:59:40;18.17;;;9.20;;
36405;SDS011;22438;42.670;23.288;2023-01-29T10:03:14;20.02;;;9.38;;
36405;SDS011;22438;42.670;23.288;2023-01-29T10:24:35;22.70;;;11.15;;
36405;SDS011;22438;42.670;23.288;2023-01-29T10:28:44;22.20;;;11.18;;
36405;SDS011;22438;42.670;23.288;2023-01-29T10:32:16;25.58;;;11.70;;
36405;SDS011;22438;42.670;23.288;2023-01-29T10:35:40;21.02;;;10.65;;
36405;SDS011;22438;42.670;23.288;2023-01-29T10:39:02;23.42;;;11.45;;
36405;SDS011;22438;42.670;23.288;2023-01-29T10:49:45;24.67;;;11.70;;
36405;SDS011;22438;42.670;23.288;2023-01-29T10:53:41;24.98;;;13.57;;
36405;SDS011;22438;42.670;23.288;2023-01-29T11:00:41;22.80;;;11.15;;
36405;SDS011;22438;42.670;23.288;2023-01-29T11:04:02;26.67;;;13.65;;
36405;SDS011;22438;42.670;23.288;2023-01-29T11:07:24;29.33;;;13.27;;
36405;SDS011;22438;42.670;23.288;2023-01-29T11:10:51;26.83;;;12.52;;
36405;SDS011;22438;42.670;23.288;2023-01-29T11:14:26;35.67;;;17.10;;
36405;SDS011;22438;42.670;23.288;2023-01-29T11:18:06;36.42;;;20.15;;
36405;SDS011;22438;42.670;23.288;2023-01-29T11:21:33;26.48;;;13.10;;
36405;SDS011;22438;42.670;23.288;2023-01-29T11:25:17;31.42;;;13.40;;
36405;SDS011;22438;42.670;23.288;2023-01-29T11:28:43;27.10;;;13.57;;
36405;SDS011;22438;42.670;23.288;2023-01-29T11:35:55;23.60;;;11.85;;
36405;SDS011;22438;42.670;23.288;2023-01-29T11:39:18;28.80;;;14.00;;
36405;SDS011;22438;42.670;23.288;2023-01-29T11:42:41;27.42;;;13.63;;
36405;SDS011;22438;42.670;23.288;2023-01-29T11:46:04;27.90;;;13.82;;
36405;SDS011;22438;42.670;23.288;2023-01-29T11:49:32;26.17;;;13.02;;
36405;SDS011;22438;42.670;23.288;2023-01-29T11:52:54;29.77;;;13.90;;
36405;SDS011;22438;42.670;23.288;2023-01-29T11:56:16;27.25;;;14.40;;
36405;SDS011;22438;42.670;23.288;2023-01-29T11:59:55;27.53;;;14.10;;
36405;SDS011;22438;42.670;23.288;2023-01-29T12:03:21;30.63;;;15.13;;
36405;SDS011;22438;42.670;23.288;2023-01-29T12:06:43;26.42;;;12.70;;
36405;SDS011;22438;42.670;23.288;2023-01-29T12:10:27;29.38;;;14.45;;
36405;SDS011;22438;42.670;23.288;2023-01-29T12:13:56;28.63;;;13.90;;
36405;SDS011;22438;42.670;23.288;2023-01-29T12:17:18;42.13;;;29.25;;
36405;SDS011;22438;42.670;23.288;2023-01-29T12:20:51;27.55;;;13.93;;
36405;SDS011;22438;42.670;23.288;2023-01-29T12:31:14;26.60;;;13.32;;
36405;SDS011;22438;42.670;23.288;2023-01-29T12:38:41;28.65;;;14.50;;
36405;SDS011;22438;42.670;23.288;2023-01-29T12:45:46;23.25;;;11.32;;
36405;SDS011;22438;42.670;23.288;2023-01-29T12:49:11;26.85;;;13.75;;
36405;SDS011;22438;42.670;23.288;2023-01-29T12:52:36;27.08;;;12.38;;
36405;SDS011;22438;42.670;23.288;2023-01-29T12:56:02;25.00;;;12.00;;
36405;SDS011;22438;42.670;23.288;2023-01-29T13:06:46;20.83;;;11.02;;
36405;SDS011;22438;42.670;23.288;2023-01-29T13:10:14;25.70;;;13.43;;
36405;SDS011;22438;42.670;23.288;2023-01-29T13:13:43;25.70;;;14.05;;
36405;SDS011;22438;42.670;23.288;2023-01-29T13:20:55;22.85;;;13.18;;
36405;SDS011;22438;42.670;23.288;2023-01-29T13:24:17;23.02;;;12.52;;
36405;SDS011;22438;42.670;23.288;2023-01-29T13:27:41;22.30;;;12.23;;
36405;SDS011;22438;42.670;23.288;2023-01-29T13:34:32;23.00;;;11.48;;
36405;SDS011;22438;42.670;23.288;2023-01-29T13:37:55;20.58;;;10.98;;
36405;SDS011;22438;42.670;23.288;2023-01-29T13:41:16;23.23;;;11.43;;
36405;SDS011;22438;42.670;23.288;2023-01-29T13:44:37;22.77;;;11.45;;
36405;SDS011;22438;42.670;23.288;2023-01-29T13:48:17;26.85;;;14.77;;
36405;SDS011;22438;42.670;23.288;2023-01-29T13:51:46;29.73;;;15.02;;
36405;SDS011;22438;42.670;23.288;2023-01-29T13:55:08;28.67;;;14.68;;
36405;SDS011;22438;42.670;23.288;2023-01-29T14:02:16;25.77;;;13.38;;
36405;SDS011;22438;42.670;23.288;2023-01-29T14:05:40;26.55;;;12.68;;
36405;SDS011;22438;42.670;23.288;2023-01-29T14:09:01;25.25;;;12.77;;
36405;SDS011;22438;42.670;23.288;2023-01-29T14:15:44;29.38;;;14.93;;
36405;SDS011;22438;42.670;23.288;2023-01-29T14:19:05;30.52;;;16.42;;
36405;SDS011;22438;42.670;23.288;2023-01-29T14:22:27;29.60;;;15.98;;
36405;SDS011;22438;42.670;23.288;2023-01-29T14:25:48;34.63;;;16.80;;
36405;SDS011;22438;42.670;23.288;2023-01-29T14:32:34;33.47;;;16.50;;
36405;SDS011;22438;42.670;23.288;2023-01-29T14:35:58;30.67;;;15.45;;
36405;SDS011;22438;42.670;23.288;2023-01-29T14:39:27;33.72;;;17.38;;
36405;SDS011;22438;42.670;23.288;2023-01-29T14:46:40;35.35;;;16.55;;
36405;SDS011;22438;42.670;23.288;2023-01-29T14:50:05;29.92;;;16.02;;
36405;SDS011;22438;42.670;23.288;2023-01-29T14:54:01;32.10;;;15.20;;
36405;SDS011;22438;42.670;23.288;2023-01-29T14:57:23;30.77;;;15.55;;
36405;SDS011;22438;42.670;23.288;2023-01-29T15:00:45;29.50;;;14.05;;
36405;SDS011;22438;42.670;23.288;2023-01-29T15:04:14;26.92;;;14.43;;
36405;SDS011;22438;42.670;23.288;2023-01-29T15:07:40;29.30;;;14.77;;
36405;SDS011;22438;42.670;23.288;2023-01-29T15:11:19;32.78;;;14.63;;
36405;SDS011;22438;42.670;23.288;2023-01-29T15:15:05;29.65;;;14.18;;
36405;SDS011;22438;42.670;23.288;2023-01-29T15:22:06;35.53;;;14.77;;
36405;SDS011;22438;42.670;23.288;2023-01-29T15:25:35;30.27;;;14.57;;
36405;SDS011;22438;42.670;23.288;2023-01-29T15:28:57;34.72;;;15.70;;
36405;SDS011;22438;42.670;23.288;2023-01-29T15:32:26;29.08;;;14.00;;
36405;SDS011;22438;42.670;23.288;2023-01-29T15:35:57;29.13;;;14.45;;
36405;SDS011;22438;42.670;23.288;2023-01-29T15:39:22;32.15;;;16.35;;
36405;SDS011;22438;42.670;23.288;2023-01-29T15:42:44;35.90;;;18.20;;
36405;SDS011;22438;42.670;23.288;2023-01-29T15:46:11;38.22;;;21.48;;
36405;SDS011;22438;42.670;23.288;2023-01-29T15:49:40;43.83;;;22.08;;
36405;SDS011;22438;42.670;23.288;2023-01-29T15:53:02;34.92;;;18.27;;
36405;SDS011;22438;42.670;23.288;2023-01-29T15:56:30;37.30;;;20.52;;
36405;SDS011;22438;42.670;23.288;2023-01-29T15:59:53;35.45;;;17.95;;
36405;SDS011;22438;42.670;23.288;2023-01-29T16:03:18;46.78;;;20.90;;
36405;SDS011;22438;42.670;23.288;2023-01-29T16:06:41;40.15;;;19.58;;
36405;SDS011;22438;42.670;23.288;2023-01-29T16:10:03;40.88;;;21.55;;
36405;SDS011;22438;42.670;23.288;2023-01-29T16:13:26;35.83;;;18.08;;
36405;SDS011;22438;42.670;23.288;2023-01-29T16:16:49;38.60;;;19.20;;
36405;SDS011;22438;42.670;23.288;2023-01-29T16:20:26;37.28;;;19.40;;
36405;SDS011;22438;42.670;23.288;2023-01-29T16:24:14;33.53;;;18.15;;
36405;SDS011;22438;42.670;23.288;2023-01-29T16:27:42;37.45;;;17.23;;
36405;SDS011;22438;42.670;23.288;2023-01-29T16:31:03;36.90;;;18.60;;
36405;SDS011;22438;42.670;23.288;2023-01-29T16:34:24;31.80;;;16.48;;
36405;SDS011;22438;42.670;23.288;2023-01-29T16:37:47;40.97;;;20.23;;
36405;SDS011;22438;42.670;23.288;2023-01-29T16:48:25;43.28;;;20.38;;
36405;SDS011;22438;42.670;23.288;2023-01-29T16:51:50;37.47;;;18.73;;
36405;SDS011;22438;42.670;23.288;2023-01-29T16:58:32;34.38;;;17.63;;
36405;SDS011;22438;42.670;23.288;2023-01-29T17:01:53;33.38;;;15.68;;
36405;SDS011;22438;42.670;23.288;2023-01-29T17:05:18;29.42;;;13.68;;
36405;SDS011;22438;42.670;23.288;2023-01-29T17:08:42;31.25;;;14.50;;
36405;SDS011;22438;42.670;23.288;2023-01-29T17:12:04;32.50;;;15.30;;
36405;SDS011;22438;42.670;23.288;2023-01-29T17:15:31;31.50;;;15.50;;
36405;SDS011;22438;42.670;23.288;2023-01-29T17:19:07;44.60;;;22.25;;
36405;SDS011;22438;42.670;23.288;2023-01-29T17:22:37;42.03;;;20.65;;
36405;SDS011;22438;42.670;23.288;2023-01-29T17:25:57;44.92;;;22.17;;
36405;SDS011;22438;42.670;23.288;2023-01-29T17:29:22;33.83;;;17.40;;
36405;SDS011;22438;42.670;23.288;2023-01-29T17:32:43;35.28;;;17.67;;
36405;SDS011;22438;42.670;23.288;2023-01-29T17:36:04;35.00;;;17.23;;
36405;SDS011;22438;42.670;23.288;2023-01-29T17:39:25;33.50;;;16.42;;
36405;SDS011;22438;42.670;23.288;2023-01-29T17:42:46;31.48;;;14.95;;
36405;SDS011;22438;42.670;23.288;2023-01-29T17:46:09;28.35;;;15.48;;
36405;SDS011;22438;42.670;23.288;2023-01-29T17:49:31;30.15;;;13.45;;
36405;SDS011;22438;42.670;23.288;2023-01-29T17:52:52;26.67;;;14.18;;
36405;SDS011;22438;42.670;23.288;2023-01-29T17:56:17;33.10;;;15.13;;
36405;SDS011;22438;42.670;23.288;2023-01-29T17:59:43;32.25;;;16.00;;
36405;SDS011;22438;42.670;23.288;2023-01-29T18:03:04;34.55;;;16.00;;
36405;SDS011;22438;42.670;23.288;2023-01-29T18:06:26;31.63;;;15.00;;
36405;SDS011;22438;42.670;23.288;2023-01-29T18:09:48;35.72;;;17.65;;
36405;SDS011;22438;42.670;23.288;2023-01-29T18:13:08;40.90;;;17.25;;
36405;SDS011;22438;42.670;23.288;2023-01-29T18:16:29;30.58;;;16.38;;
36405;SDS011;22438;42.670;23.288;2023-01-29T18:19:56;35.15;;;15.45;;
36405;SDS011;22438;42.670;23.288;2023-01-29T18:23:17;26.30;;;13.30;;
36405;SDS011;22438;42.670;23.288;2023-01-29T18:26:38;30.70;;;15.02;;
36405;SDS011;22438;42.670;23.288;2023-01-29T18:29:58;32.03;;;14.65;;
36405;SDS011;22438;42.670;23.288;2023-01-29T18:33:19;34.38;;;15.48;;
36405;SDS011;22438;42.670;23.288;2023-01-29T18:36:40;40.72;;;17.92;;
36405;SDS011;22438;42.670;23.288;2023-01-29T18:40:06;37.75;;;18.02;;
36405;SDS011;22438;42.670;23.288;2023-01-29T18:43:27;33.97;;;16.83;;
36405;SDS011;22438;42.670;23.288;2023-01-29T18:46:47;38.15;;;15.38;;
36405;SDS011;22438;42.670;23.288;2023-01-29T18:50:09;30.75;;;14.77;;
36405;SDS011;22438;42.670;23.288;2023-01-29T18:53:30;29.00;;;13.93;;
36405;SDS011;22438;42.670;23.288;2023-01-29T18:56:52;31.80;;;14.77;;
36405;SDS011;22438;42.670;23.288;2023-01-29T19:00:13;31.63;;;13.88;;
36405;SDS011;22438;42.670;23.288;2023-01-29T19:03:34;30.95;;;14.77;;
36405;SDS011;22438;42.670;23.288;2023-01-29T19:06:55;34.67;;;15.15;;
36405;SDS011;22438;42.670;23.288;2023-01-29T19:10:16;32.97;;;15.32;;
36405;SDS011;22438;42.670;23.288;2023-01-29T19:13:37;30.10;;;13.70;;
36405;SDS011;22438;42.670;23.288;2023-01-29T19:16:58;28.17;;;13.00;;
36405;SDS011;22438;42.670;23.288;2023-01-29T19:20:23;34.55;;;14.68;;
36405;SDS011;22438;42.670;23.288;2023-01-29T19:23:44;28.83;;;14.00;;
36405;SDS011;22438;42.670;23.288;2023-01-29T19:27:05;32.55;;;15.55;;
36405;SDS011;22438;42.670;23.288;2023-01-29T19:30:26;37.53;;;16.08;;
36405;SDS011;22438;42.670;23.288;2023-01-29T19:33:46;34.20;;;14.90;;
36405;SDS011;22438;42.670;23.288;2023-01-29T19:37:07;32.85;;;14.43;;
36405;SDS011;22438;42.670;23.288;2023-01-29T19:40:28;34.13;;;15.60;;
36405;SDS011;22438;42.670;23.288;2023-01-29T19:43:49;34.03;;;15.50;;
36405;SDS011;22438;42.670;23.288;2023-01-29T19:47:09;32.42;;;14.75;;
36405;SDS011;22438;42.670;23.288;2023-01-29T19:50:30;36.83;;;16.92;;
36405;SDS011;22438;42.670;23.288;2023-01-29T19:53:51;36.38;;;16.70;;
36405;SDS011;22438;42.670;23.288;2023-01-29T19:57:11;42.45;;;17.73;;
36405;SDS011;22438;42.670;23.288;2023-01-29T20:00:32;41.95;;;17.85;;
36405;SDS011;22438;42.670;23.288;2023-01-29T20:03:53;47.72;;;19.98;;
36405;SDS011;22438;42.670;23.288;2023-01-29T20:07:14;46.65;;;19.23;;
36405;SDS011;22438;42.670;23.288;2023-01-29T20:10:35;42.13;;;17.65;;
36405;SDS011;22438;42.670;23.288;2023-01-29T20:13:56;43.30;;;19.00;;
36405;SDS011;22438;42.670;23.288;2023-01-29T20:17:17;38.15;;;17.10;;
36405;SDS011;22438;42.670;23.288;2023-01-29T20:20:41;38.45;;;17.00;;
36405;SDS011;22438;42.670;23.288;2023-01-29T20:24:03;32.22;;;14.88;;
36405;SDS011;22438;42.670;23.288;2023-01-29T20:27:24;26.92;;;12.80;;
36405;SDS011;22438;42.670;23.288;2023-01-29T20:30:44;35.22;;;13.63;;
36405;SDS011;22438;42.670;23.288;2023-01-29T20:34:05;32.05;;;13.98;;
36405;SDS011;22438;42.670;23.288;2023-01-29T20:37:26;34.92;;;14.27;;
36405;SDS011;22438;42.670;23.288;2023-01-29T20:40:47;32.67;;;14.88;;
36405;SDS011;22438;42.670;23.288;2023-01-29T20:44:08;34.75;;;15.60;;
36405;SDS011;22438;42.670;23.288;2023-01-29T20:47:28;36.08;;;14.05;;
36405;SDS011;22438;42.670;23.288;2023-01-29T20:50:49;33.25;;;14.55;;
36405;SDS011;22438;42.670;23.288;2023-01-29T20:54:10;33.97;;;15.27;;
36405;SDS011;22438;42.670;23.288;2023-01-29T20:57:32;34.53;;;14.35;;
36405;SDS011;22438;42.670;23.288;2023-01-29T21:00:52;34.15;;;12.98;;
36405;SDS011;22438;42.670;23.288;2023-01-29T21:04:13;34.25;;;14.68;;
36405;SDS011;22438;42.670;23.288;2023-01-29T21:07:34;32.30;;;14.70;;
36405;SDS011;22438;42.670;23.288;2023-01-29T21:10:55;32.17;;;14.20;;
36405;SDS011;22438;42.670;23.288;2023-01-29T21:14:16;36.33;;;14.82;;
36405;SDS011;22438;42.670;23.288;2023-01-29T21:17:36;38.05;;;15.75;;
36405;SDS011;22438;42.670;23.288;2023-01-29T21:20:57;30.73;;;13.60;;
36405;SDS011;22438;42.670;23.288;2023-01-29T21:24:18;27.88;;;12.18;;
36405;SDS011;22438;42.670;23.288;2023-01-29T21:27:38;23.98;;;11.48;;
36405;SDS011;22438;42.670;23.288;2023-01-29T21:31:09;28.58;;;12.50;;
36405;SDS011;22438;42.670;23.288;2023-01-29T21:34:31;27.80;;;11.90;;
36405;SDS011;22438;42.670;23.288;2023-01-29T21:37:52;24.60;;;10.75;;
36405;SDS011;22438;42.670;23.288;2023-01-29T21:41:13;21.73;;;10.40;;
36405;SDS011;22438;42.670;23.288;2023-01-29T21:44:34;24.52;;;9.95;;
36405;SDS011;22438;42.670;23.288;2023-01-29T21:47:55;23.73;;;10.38;;
36405;SDS011;22438;42.670;23.288;2023-01-29T21:51:16;29.38;;;11.75;;
36405;SDS011;22438;42.670;23.288;2023-01-29T21:54:37;29.52;;;12.15;;
36405;SDS011;22438;42.670;23.288;2023-01-29T21:58:02;30.25;;;12.05;;
36405;SDS011;22438;42.670;23.288;2023-01-29T22:01:23;26.10;;;11.50;;
36405;SDS011;22438;42.670;23.288;2023-01-29T22:04:44;27.10;;;11.18;;
36405;SDS011;22438;42.670;23.288;2023-01-29T22:08:04;26.85;;;12.13;;
36405;SDS011;22438;42.670;23.288;2023-01-29T22:11:25;26.88;;;11.57;;
36405;SDS011;22438;42.670;23.288;2023-01-29T22:14:46;28.40;;;12.20;;
36405;SDS011;22438;42.670;23.288;2023-01-29T22:18:07;29.02;;;13.15;;
36405;SDS011;22438;42.670;23.288;2023-01-29T22:21:28;33.67;;;14.50;;